createdAt,value
2023-04-04T00:01:04.320Z,1.02
2023-04-04T00:04:07.927Z,1.23
2023-04-04T00:07:11.238Z,1.00
2023-04-04T00:10:16.613Z,0.90
2023-04-04T00:13:20.559Z,0.88
2023-04-04T00:16:24.509Z,1.20
2023-04-04T00:19:30.220Z,0.93
2023-04-04T00:22:34.119Z,1.00
2023-04-04T00:25:39.564Z,0.77
2023-04-04T00:28:43.262Z,0.85
2023-04-04T00:31:47.012Z,1.02
2023-04-04T00:34:54.075Z,1.30
2023-04-04T00:37:59.211Z,0.90
2023-04-04T00:41:06.293Z,0.95
2023-04-04T00:44:14.846Z,0.98
2023-04-04T00:47:53.410Z,0.90
2023-04-04T00:55:17.587Z,0.90
2023-04-04T00:58:22.866Z,0.88
2023-04-04T01:01:28.564Z,1.08
2023-04-04T01:04:33.000Z,1.00
2023-04-04T01:07:41.585Z,0.82
2023-04-04T01:10:46.059Z,0.77
2023-04-04T01:13:52.600Z,0.90
2023-04-04T01:16:57.954Z,0.60
2023-04-04T01:20:08.022Z,0.82
2023-04-04T01:23:19.633Z,0.90
2023-04-04T01:26:27.230Z,0.90
2023-04-04T01:29:33.725Z,0.90
2023-04-04T01:32:42.732Z,1.00
2023-04-04T01:35:55.579Z,0.80
2023-04-04T01:39:03.603Z,0.90
2023-04-04T01:42:14.693Z,1.10
2023-04-04T01:45:24.278Z,0.88
2023-04-04T01:48:30.055Z,0.80
2023-04-04T01:51:41.769Z,1.15
2023-04-04T01:54:45.566Z,1.00
2023-04-04T01:57:51.193Z,1.17
2023-04-04T02:00:54.895Z,1.08
2023-04-04T02:03:59.241Z,1.25
2023-04-04T02:07:08.303Z,0.98
2023-04-04T02:10:13.268Z,0.98
2023-04-04T02:13:18.408Z,1.02
2023-04-04T02:16:23.521Z,0.85
2023-04-04T02:19:28.028Z,1.10
2023-04-04T02:22:32.306Z,0.93
2023-04-04T02:25:42.800Z,1.00
2023-04-04T02:28:47.803Z,0.77
2023-04-04T02:31:52.876Z,1.00
2023-04-04T02:34:58.341Z,1.02
2023-04-04T02:38:03.451Z,1.00
2023-04-04T02:41:16.114Z,1.20
2023-04-04T02:44:24.275Z,1.10
2023-04-04T02:47:31.706Z,1.15
2023-04-04T02:50:35.708Z,1.17
2023-04-04T02:53:39.464Z,0.77
2023-04-04T02:56:55.973Z,1.23
2023-04-04T03:00:01.065Z,1.20
2023-04-04T03:03:10.833Z,0.85
2023-04-04T03:06:19.627Z,0.80
2023-04-04T03:09:27.279Z,1.13
2023-04-04T03:12:31.665Z,0.90
2023-04-04T03:15:36.925Z,0.88
2023-04-04T03:18:41.152Z,0.90
2023-04-04T03:21:46.219Z,0.70
2023-04-04T03:24:50.190Z,0.80
2023-04-04T03:27:53.896Z,1.10
2023-04-04T03:31:04.845Z,0.98
2023-04-04T03:34:09.962Z,0.73
2023-04-04T03:37:13.552Z,1.10
2023-04-04T03:40:18.536Z,0.80
2023-04-04T03:43:23.014Z,0.65
2023-04-04T03:46:30.972Z,1.13
2023-04-04T03:49:41.315Z,0.70
2023-04-04T03:52:45.567Z,1.00
2023-04-04T03:55:51.987Z,1.05
2023-04-04T03:58:58.028Z,1.08
2023-04-04T04:02:03.330Z,1.20
2023-04-04T04:05:09.324Z,1.20
2023-04-04T04:08:15.039Z,1.00
2023-04-04T04:11:18.609Z,1.00
2023-04-04T04:14:23.067Z,0.93
2023-04-04T04:17:30.015Z,1.27
2023-04-04T04:20:39.009Z,0.82
2023-04-04T04:23:43.471Z,0.80
2023-04-04T04:26:48.273Z,1.05
2023-04-04T04:29:53.756Z,0.77
2023-04-04T04:32:59.034Z,0.95
2023-04-04T04:36:10.097Z,0.93
2023-04-04T04:39:24.805Z,1.00
2023-04-04T04:42:46.850Z,1.00
2023-04-04T04:45:54.225Z,0.90
2023-04-04T04:49:01.847Z,0.85
2023-04-04T04:52:08.569Z,0.90
2023-04-04T04:55:13.528Z,0.95
2023-04-04T04:58:28.804Z,0.85
2023-04-04T05:01:34.807Z,1.23
2023-04-04T05:04:41.385Z,1.33
2023-04-04T05:07:55.740Z,1.00
2023-04-04T05:11:00.625Z,0.88
2023-04-04T05:14:07.142Z,0.98
2023-04-04T05:17:28.288Z,0.95
2023-04-04T05:20:43.430Z,0.95
2023-04-04T05:23:53.404Z,0.98
2023-04-04T05:27:00.095Z,0.85
2023-04-04T05:30:11.133Z,1.40
2023-04-04T05:33:27.042Z,0.93
2023-04-04T05:36:43.343Z,1.17
2023-04-04T05:39:50.017Z,1.35
2023-04-04T05:42:59.402Z,1.85
2023-04-04T05:46:12.767Z,1.42
2023-04-04T05:49:25.154Z,0.95
2023-04-04T05:52:39.690Z,1.10
2023-04-04T05:55:49.870Z,1.15
2023-04-04T05:58:54.680Z,1.42
2023-04-04T06:01:59.804Z,1.98
2023-04-04T06:05:03.747Z,1.38
2023-04-04T06:08:15.479Z,1.25
2023-04-04T06:11:19.310Z,1.45
2023-04-04T06:14:24.398Z,1.50
2023-04-04T06:17:28.620Z,1.63
2023-04-04T06:20:34.692Z,1.70
2023-04-04T06:23:44.000Z,1.55
2023-04-04T06:26:51.674Z,1.70
2023-04-04T06:29:57.941Z,1.88
2023-04-04T06:33:02.447Z,1.92
2023-04-04T06:36:07.461Z,1.48
2023-04-04T06:39:12.525Z,1.50
2023-04-04T06:42:17.572Z,1.85
2023-04-04T06:45:24.983Z,1.65
2023-04-04T06:48:31.832Z,1.70
2023-04-04T06:51:36.121Z,1.58
2023-04-04T06:54:44.663Z,1.60
2023-04-04T06:57:48.292Z,1.58
2023-04-04T07:00:59.511Z,1.23
2023-04-04T07:04:03.117Z,1.67
2023-04-04T07:07:08.037Z,1.45
2023-04-04T07:10:15.446Z,1.50
2023-04-04T07:13:19.783Z,1.77
2023-04-04T07:16:24.217Z,2.17
2023-04-04T07:19:32.874Z,2.05
2023-04-04T07:22:40.016Z,1.55
2023-04-04T07:25:46.788Z,1.40
2023-04-04T07:28:52.884Z,1.90
2023-04-04T07:31:57.078Z,1.90
2023-04-04T07:35:01.419Z,1.77
2023-04-04T07:38:05.529Z,1.27
2023-04-04T07:41:13.717Z,1.67
2023-04-04T07:44:18.834Z,1.00
2023-04-04T07:47:25.421Z,1.15
2023-04-04T07:50:29.357Z,1.20
2023-04-04T07:53:35.016Z,1.60
2023-04-04T07:56:43.030Z,1.35
2023-04-04T07:59:47.609Z,1.20
2023-04-04T08:02:55.589Z,1.08
2023-04-04T08:06:04.539Z,1.27
2023-04-04T08:09:08.707Z,0.80
2023-04-04T08:12:13.652Z,1.00
2023-04-04T08:15:17.990Z,0.90
2023-04-04T08:18:22.127Z,0.90
2023-04-04T08:21:25.738Z,0.98
2023-04-04T08:24:30.163Z,0.82
2023-04-04T08:27:38.561Z,0.82
2023-04-04T08:30:42.498Z,0.60
2023-04-04T08:33:48.011Z,0.98
2023-04-04T08:36:52.006Z,0.85
2023-04-04T08:39:56.904Z,0.63
2023-04-04T08:43:03.141Z,0.70
2023-04-04T08:46:10.090Z,0.70
2023-04-04T08:49:15.443Z,0.90
2023-04-04T08:52:22.809Z,0.65
2023-04-04T08:55:28.735Z,0.50
2023-04-04T08:58:33.792Z,0.82
2023-04-04T09:01:38.189Z,0.60
2023-04-04T09:04:51.338Z,0.60
2023-04-04T09:08:03.929Z,0.80
2023-04-04T09:11:07.883Z,0.73
2023-04-04T09:14:14.822Z,0.45
2023-04-04T09:17:19.473Z,0.63
2023-04-04T09:20:36.170Z,0.50
2023-04-04T09:23:41.030Z,0.77
2023-04-04T09:26:57.416Z,0.57
2023-04-04T09:30:06.558Z,0.80
2023-04-04T09:33:11.801Z,0.57
2023-04-04T09:36:18.101Z,0.82
2023-04-04T09:39:31.909Z,1.00
2023-04-04T09:42:35.588Z,0.65
2023-04-04T09:45:42.055Z,0.90
2023-04-04T09:48:53.418Z,0.70
2023-04-04T09:51:57.283Z,0.95
2023-04-04T09:55:01.804Z,0.85
2023-04-04T09:58:14.228Z,0.73
2023-04-04T10:01:19.477Z,0.60
2023-04-04T10:04:26.859Z,0.90
2023-04-04T10:07:32.068Z,0.80
2023-04-04T10:10:36.371Z,0.88
2023-04-04T10:13:41.910Z,0.80
2023-04-04T10:16:52.543Z,1.05
2023-04-04T10:19:56.922Z,0.70
2023-04-04T10:23:02.683Z,0.57
2023-04-04T10:26:08.865Z,0.77
2023-04-04T10:29:12.727Z,0.52
2023-04-04T10:32:21.270Z,0.68
2023-04-04T10:35:26.352Z,1.00
2023-04-04T10:38:32.607Z,0.60
2023-04-04T10:41:37.650Z,0.60
2023-04-04T10:44:42.756Z,1.00
2023-04-04T10:47:48.122Z,0.60
2023-04-04T10:50:52.149Z,0.70
2023-04-04T10:53:57.195Z,0.88
2023-04-04T10:57:02.186Z,0.70
2023-04-04T11:00:08.651Z,1.23
2023-04-04T11:03:14.882Z,0.90
2023-04-04T11:06:18.686Z,0.77
2023-04-04T11:09:37.309Z,0.80
2023-04-04T11:12:46.665Z,0.55
2023-04-04T11:15:58.190Z,0.65
2023-04-04T11:19:03.781Z,0.77
2023-04-04T11:22:07.831Z,0.70
2023-04-04T11:25:30.652Z,0.70
2023-04-04T11:28:49.905Z,0.70
2023-04-04T11:31:54.650Z,0.90
2023-04-04T11:35:02.000Z,0.65
2023-04-04T11:38:06.672Z,0.70
2023-04-04T11:41:11.840Z,0.70
2023-04-04T11:44:16.212Z,0.50
2023-04-04T11:47:22.024Z,0.82
2023-04-04T11:50:28.150Z,0.77
2023-04-04T11:53:34.205Z,0.85
2023-04-04T11:56:38.719Z,0.80
2023-04-04T11:59:43.519Z,0.63
2023-04-04T12:02:47.317Z,0.98
2023-04-04T12:05:53.638Z,1.05
2023-04-04T12:08:57.776Z,0.95
2023-04-04T12:12:02.216Z,0.90
2023-04-04T12:15:16.940Z,0.63
2023-04-04T12:18:26.252Z,0.60
2023-04-04T12:21:36.225Z,0.90
2023-04-04T12:24:40.286Z,0.70
2023-04-04T12:27:44.175Z,0.50
2023-04-04T12:30:47.820Z,0.68
2023-04-04T12:33:55.114Z,0.60
2023-04-04T12:37:00.550Z,0.80
2023-04-04T12:40:07.403Z,0.60
2023-04-04T12:43:17.997Z,1.20
2023-04-04T12:46:28.508Z,0.65
2023-04-04T12:49:32.937Z,0.70
2023-04-04T12:52:42.814Z,0.70
2023-04-04T12:55:48.773Z,0.77
2023-04-04T12:58:52.653Z,0.63
2023-04-04T13:01:56.978Z,0.90
2023-04-04T13:05:03.837Z,0.90
2023-04-04T13:08:11.408Z,0.90
2023-04-04T13:11:16.124Z,0.50
2023-04-04T13:14:19.879Z,0.57
2023-04-04T13:17:25.660Z,0.85
2023-04-04T13:20:29.477Z,0.60
2023-04-04T13:23:35.139Z,1.13
2023-04-04T13:26:39.063Z,0.73
2023-04-04T13:29:45.002Z,0.70
2023-04-04T13:32:49.924Z,0.80
2023-04-04T13:35:53.627Z,0.70
2023-04-04T13:39:00.133Z,0.90
2023-04-04T13:42:03.746Z,0.90
2023-04-04T13:45:07.717Z,0.85
2023-04-04T13:48:13.288Z,0.75
2023-04-04T13:51:18.640Z,0.60
2023-04-04T13:54:23.766Z,1.08
2023-04-04T13:57:34.264Z,1.00
2023-04-04T14:00:57.780Z,0.77
2023-04-04T14:04:23.481Z,0.80
2023-04-04T14:07:49.882Z,0.98
2023-04-04T14:11:07.157Z,1.17
2023-04-04T14:14:14.657Z,1.00
2023-04-04T14:17:18.523Z,1.00
2023-04-04T14:20:22.308Z,1.23
2023-04-04T14:23:28.274Z,0.98
2023-04-04T14:26:34.125Z,0.55
2023-04-04T14:29:42.093Z,0.80
2023-04-04T14:32:51.278Z,0.80
2023-04-04T14:35:55.097Z,0.88
2023-04-04T14:38:59.660Z,0.80
2023-04-04T14:42:07.511Z,0.80
2023-04-04T14:45:12.438Z,0.80
2023-04-04T14:48:19.007Z,0.80
2023-04-04T14:51:22.602Z,1.27
2023-04-04T14:54:26.441Z,1.00
2023-04-04T14:57:39.345Z,0.90
2023-04-04T15:00:52.347Z,1.13
2023-04-04T15:03:56.156Z,1.13
2023-04-04T15:07:04.380Z,1.10
2023-04-04T15:10:09.635Z,4.25
2023-04-04T15:13:16.348Z,6.15
2023-04-04T15:16:19.941Z,2.78
2023-04-04T15:19:25.945Z,2.40
2023-04-04T15:22:31.946Z,1.40
2023-04-04T15:25:41.986Z,1.23
2023-04-04T15:28:47.663Z,1.23
2023-04-04T15:31:51.767Z,1.05
2023-04-04T15:34:58.286Z,1.15
2023-04-04T15:38:02.522Z,1.00
2023-04-04T15:41:17.473Z,0.90
2023-04-04T15:44:26.956Z,1.17
2023-04-04T15:47:32.342Z,1.05
2023-04-04T15:50:38.340Z,1.30
2023-04-04T15:53:45.183Z,0.95
2023-04-04T15:56:49.137Z,0.98
2023-04-04T15:59:56.342Z,1.08
2023-04-04T16:03:00.352Z,1.75
2023-04-04T16:06:06.503Z,1.00
2023-04-04T16:09:10.910Z,1.13
2023-04-04T16:12:16.023Z,1.10
2023-04-04T16:15:24.593Z,1.17
2023-04-04T16:18:28.267Z,1.17
2023-04-04T16:21:32.237Z,1.00
2023-04-04T16:24:39.267Z,1.02
2023-04-04T16:27:43.026Z,0.98
2023-04-04T16:30:50.345Z,1.38
2023-04-04T16:33:58.528Z,1.08
2023-04-04T16:37:05.778Z,1.30
2023-04-04T16:40:10.625Z,1.17
2023-04-04T16:43:15.039Z,1.20
2023-04-04T16:46:20.135Z,1.05
2023-04-04T16:49:24.525Z,1.15
2023-04-04T16:52:28.236Z,1.50
2023-04-04T16:55:33.310Z,1.02
2023-04-04T16:58:37.848Z,1.00
2023-04-04T17:01:43.156Z,1.20
2023-04-04T17:04:46.908Z,1.20
2023-04-04T17:07:51.557Z,0.90
2023-04-04T17:10:55.014Z,0.90
2023-04-04T17:14:01.332Z,0.90
2023-04-04T17:17:11.537Z,1.20
2023-04-04T17:20:19.699Z,1.17
2023-04-04T17:23:27.342Z,0.90
2023-04-04T17:26:30.972Z,1.30
2023-04-04T17:29:39.123Z,1.60
2023-04-04T17:32:48.741Z,1.00
2023-04-04T17:35:53.020Z,1.35
2023-04-04T17:38:58.152Z,1.40
2023-04-04T17:42:02.168Z,2.03
2023-04-04T17:45:06.770Z,1.10
2023-04-04T17:48:11.902Z,1.30
2023-04-04T17:51:19.425Z,1.15
2023-04-04T17:54:26.113Z,1.42
2023-04-04T17:57:29.975Z,1.65
2023-04-04T18:00:35.010Z,1.17
2023-04-04T18:03:42.117Z,1.45
2023-04-04T18:06:46.111Z,1.08
2023-04-04T18:09:49.737Z,1.50
2023-04-04T18:12:53.485Z,0.90
2023-04-04T18:15:57.257Z,1.60
2023-04-04T18:19:02.725Z,2.20
2023-04-04T18:22:07.334Z,1.77
2023-04-04T18:25:17.076Z,1.40
2023-04-04T18:28:22.305Z,1.38
2023-04-04T18:31:27.347Z,1.40
2023-04-04T18:34:33.079Z,1.10
2023-04-04T18:37:37.691Z,1.35
2023-04-04T18:40:41.559Z,1.10
2023-04-04T18:43:45.660Z,1.30
2023-04-04T18:46:49.255Z,1.05
2023-04-04T18:49:54.460Z,1.10
2023-04-04T18:52:58.212Z,1.20
2023-04-04T18:56:07.243Z,0.90
2023-04-04T18:59:11.472Z,0.90
2023-04-04T19:02:14.900Z,0.90
2023-04-04T19:05:24.350Z,0.90
2023-04-04T19:08:28.472Z,1.05
2023-04-04T19:11:35.168Z,0.90
2023-04-04T19:14:38.785Z,1.48
2023-04-04T19:17:43.709Z,1.33
2023-04-04T19:20:49.844Z,1.50
2023-04-04T19:23:54.776Z,1.20
2023-04-04T19:26:58.523Z,1.40
2023-04-04T19:30:03.153Z,0.90
2023-04-04T19:33:11.910Z,1.35
2023-04-04T19:36:16.728Z,1.02
2023-04-04T19:39:25.570Z,1.00
2023-04-04T19:42:30.268Z,1.02
2023-04-04T19:45:47.953Z,0.90
2023-04-04T19:48:53.283Z,0.88
2023-04-04T19:51:58.835Z,0.95
2023-04-04T19:55:03.601Z,0.90
2023-04-04T19:58:19.719Z,0.90
2023-04-04T20:01:25.526Z,1.13
2023-04-04T20:04:29.468Z,1.23
2023-04-04T20:07:37.289Z,1.30
2023-04-04T20:10:43.287Z,1.58
2023-04-04T20:13:47.478Z,1.13
2023-04-04T20:16:52.702Z,1.63
2023-04-04T20:19:58.618Z,1.50
2023-04-04T20:23:06.864Z,1.13
2023-04-04T20:26:14.554Z,1.33
2023-04-04T20:29:18.903Z,1.10
2023-04-04T20:32:23.123Z,1.13
2023-04-04T20:35:27.852Z,0.90
2023-04-04T20:38:33.206Z,1.08
2023-04-04T20:41:37.912Z,1.00
2023-04-04T20:44:41.854Z,1.00
2023-04-04T20:47:46.485Z,1.10
2023-04-04T20:50:51.742Z,0.88
2023-04-04T20:53:57.516Z,1.00
2023-04-04T20:57:04.049Z,1.10
2023-04-04T21:00:28.201Z,1.02
2023-04-04T21:03:34.160Z,0.95
2023-04-04T21:06:37.923Z,1.30
2023-04-04T21:09:43.210Z,0.93
2023-04-04T21:12:47.270Z,1.52
2023-04-04T21:15:51.330Z,0.90
2023-04-04T21:18:59.344Z,1.40
2023-04-04T21:22:02.959Z,1.23
2023-04-04T21:25:19.786Z,1.05
2023-04-04T21:28:23.861Z,1.17
2023-04-04T21:31:30.505Z,1.33
2023-04-04T21:34:35.445Z,1.40
2023-04-04T21:37:46.400Z,1.15
2023-04-04T21:41:02.841Z,1.45
2023-04-04T21:44:09.253Z,1.38
2023-04-04T21:47:14.635Z,2.10
2023-04-04T21:50:25.251Z,2.03
2023-04-04T21:53:29.076Z,1.80
2023-04-04T21:56:34.375Z,1.95
2023-04-04T21:59:41.689Z,1.95
2023-04-04T22:02:48.043Z,2.35
2023-04-04T22:05:53.423Z,1.92
2023-04-04T22:08:59.303Z,1.70
2023-04-04T22:12:05.931Z,1.90
2023-04-04T22:15:11.763Z,1.48
2023-04-04T22:18:17.742Z,1.15
2023-04-04T22:21:26.303Z,1.30
2023-04-04T22:24:34.516Z,1.20
2023-04-04T22:27:49.608Z,1.15
2023-04-04T22:30:54.879Z,1.10
2023-04-04T22:34:02.506Z,1.30
2023-04-04T22:37:07.377Z,1.10
2023-04-04T22:40:15.870Z,1.23
2023-04-04T22:43:21.963Z,0.90
2023-04-04T22:46:29.720Z,1.30
2023-04-04T22:49:37.654Z,0.88
2023-04-04T22:52:43.982Z,1.40
2023-04-04T22:55:51.842Z,0.95
2023-04-04T22:59:01.206Z,1.10
2023-04-04T23:02:06.124Z,0.75
2023-04-04T23:05:11.464Z,0.90
2023-04-04T23:08:16.605Z,0.95
2023-04-04T23:11:21.930Z,1.13
2023-04-04T23:14:30.755Z,1.23
2023-04-04T23:17:34.949Z,1.17
2023-04-04T23:20:40.783Z,1.00
2023-04-04T23:23:45.760Z,1.25
2023-04-04T23:26:50.279Z,1.10
2023-04-04T23:30:00.456Z,1.10
2023-04-04T23:33:07.371Z,0.90
2023-04-04T23:36:11.687Z,1.00
2023-04-04T23:39:22.746Z,1.40
2023-04-04T23:42:30.830Z,1.00
2023-04-04T23:45:41.922Z,1.17
2023-04-04T23:48:45.590Z,1.33
2023-04-04T23:51:51.065Z,1.27
2023-04-04T23:54:54.959Z,1.23
2023-04-04T23:58:03.488Z,1.38
